sensor_id;sensor_type;location;lat;lon;timestamp;pressure;altitude;pressure_sealevel;temperature;humidity
1736;BME280;865;53.672;10.250;2023-11-21T00:00:51;100077.75;;;6.62;100.00
1736;BME280;865;53.672;10.250;2023-11-21T00:03:17;100082.94;;;6.64;100.00
1736;BME280;865;53.672;10.250;2023-11-21T00:05:45;100086.56;;;6.51;100.00
1736;BME280;865;53.672;10.250;2023-11-21T00:08:12;100088.47;;;6.39;100.00
1736;BME280;865;53.672;10.250;2023-11-21T00:10:38;100095.28;;;6.47;100.00
1736;BME280;865;53.672;10.250;2023-11-21T00:13:05;100098.66;;;6.50;100.00
1736;BME280;865;53.672;10.250;2023-11-21T00:15:31;100099.59;;;6.46;100.00
1736;BME280;865;53.672;10.250;2023-11-21T00:17:58;100104.69;;;6.52;100.00
1736;BME280;865;53.672;10.250;2023-11-21T00:20:24;100107.34;;;6.48;100.00
1736;BME280;865;53.672;10.250;2023-11-21T00:22:51;100114.38;;;6.39;100.00
1736;BME280;865;53.672;10.250;2023-11-21T00:25:17;100113.56;;;6.34;100.00
1736;BME280;865;53.672;10.250;2023-11-21T00:27:44;100123.88;;;6.36;100.00
1736;BME280;865;53.672;10.250;2023-11-21T00:30:11;100134.25;;;6.37;100.00
1736;BME280;865;53.672;10.250;2023-11-21T00:32:38;100133.34;;;6.38;100.00
1736;BME280;865;53.672;10.250;2023-11-21T00:35:05;100137.69;;;6.39;100.00
1736;BME280;865;53.672;10.250;2023-11-21T00:37:32;100141.22;;;6.32;100.00
1736;BME280;865;53.672;10.250;2023-11-21T00:39:58;100149.88;;;6.30;100.00
1736;BME280;865;53.672;10.250;2023-11-21T00:42:25;100154.19;;;6.29;100.00
1736;BME280;865;53.672;10.250;2023-11-21T00:44:51;100152.47;;;6.31;100.00
1736;BME280;865;53.672;10.250;2023-11-21T00:47:18;100155.91;;;6.30;100.00
1736;BME280;865;53.672;10.250;2023-11-21T00:49:44;100167.22;;;6.23;100.00
1736;BME280;865;53.672;10.250;2023-11-21T00:52:11;100178.59;;;6.10;100.00
1736;BME280;865;53.672;10.250;2023-11-21T00:54:37;100187.34;;;5.98;100.00
1736;BME280;865;53.672;10.250;2023-11-21T00:57:04;100192.50;;;6.01;100.00
1736;BME280;865;53.672;10.250;2023-11-21T00:59:31;100189.97;;;5.95;100.00
1736;BME280;865;53.672;10.250;2023-11-21T01:01:57;100199.44;;;5.91;100.00
1736;BME280;865;53.672;10.250;2023-11-21T01:04:27;100203.75;;;5.94;100.00
1736;BME280;865;53.672;10.250;2023-11-21T01:06:53;100217.66;;;5.79;100.00
1736;BME280;865;53.672;10.250;2023-11-21T01:09:20;100203.84;;;5.83;100.00
1736;BME280;865;53.672;10.250;2023-11-21T01:11:46;100203.88;;;5.80;100.00
1736;BME280;865;53.672;10.250;2023-11-21T01:14:13;100207.34;;;5.76;100.00
1736;BME280;865;53.672;10.250;2023-11-21T01:16:40;100215.09;;;5.76;100.00
1736;BME280;865;53.672;10.250;2023-11-21T01:19:06;100224.63;;;5.71;100.00
1736;BME280;865;53.672;10.250;2023-11-21T01:21:33;100232.41;;;5.68;100.00
1736;BME280;865;53.672;10.250;2023-11-21T01:24:00;100235.84;;;5.70;100.00
1736;BME280;865;53.672;10.250;2023-11-21T01:26:26;100241.06;;;5.67;100.00
1736;BME280;865;53.672;10.250;2023-11-21T01:28:53;100246.34;;;5.56;100.00
1736;BME280;865;53.672;10.250;2023-11-21T01:31:21;100263.50;;;5.62;100.00
1736;BME280;865;53.672;10.250;2023-11-21T01:33:47;100266.94;;;5.67;100.00
1736;BME280;865;53.672;10.250;2023-11-21T01:36:15;100279.06;;;5.59;100.00
1736;BME280;865;53.672;10.250;2023-11-21T01:38:41;100284.22;;;5.59;100.00
1736;BME280;865;53.672;10.250;2023-11-21T01:41:08;100287.69;;;5.61;100.00
1736;BME280;865;53.672;10.250;2023-11-21T01:43:37;100299.81;;;5.54;100.00
1736;BME280;865;53.672;10.250;2023-11-21T01:46:04;100301.44;;;5.66;100.00
1736;BME280;865;53.672;10.250;2023-11-21T01:48:33;100310.94;;;5.68;100.00
1736;BME280;865;53.672;10.250;2023-11-21T01:51:01;100330.84;;;5.54;100.00
1736;BME280;865;53.672;10.250;2023-11-21T01:53:28;100336.91;;;5.47;100.00
1736;BME280;865;53.672;10.250;2023-11-21T01:55:55;100339.47;;;5.55;100.00
1736;BME280;865;53.672;10.250;2023-11-21T01:58:24;100343.72;;;5.62;100.00
1736;BME280;865;53.672;10.250;2023-11-21T02:00:50;100347.19;;;5.62;100.00
1736;BME280;865;53.672;10.250;2023-11-21T02:03:17;100354.09;;;5.56;100.00
1736;BME280;865;53.672;10.250;2023-11-21T02:05:44;100367.91;;;5.55;100.00
1736;BME280;865;53.672;10.250;2023-11-21T02:08:10;100373.06;;;5.65;100.00
1736;BME280;865;53.672;10.250;2023-11-21T02:10:37;100382.56;;;5.57;100.00
1736;BME280;865;53.672;10.250;2023-11-21T02:13:04;100391.16;;;5.61;100.00
1736;BME280;865;53.672;10.250;2023-11-21T02:15:30;100394.63;;;5.60;100.00
1736;BME280;865;53.672;10.250;2023-11-21T02:17:57;100410.19;;;5.52;100.00
1736;BME280;865;53.672;10.250;2023-11-21T02:20:25;100406.75;;;5.52;100.00
1736;BME280;865;53.672;10.250;2023-11-21T02:22:54;100411.00;;;5.59;100.00
1736;BME280;865;53.672;10.250;2023-11-21T02:25:25;100411.84;;;5.64;100.00
1736;BME280;865;53.672;10.250;2023-11-21T02:27:52;100435.19;;;5.59;100.00
1736;BME280;865;53.672;10.250;2023-11-21T02:30:21;100439.50;;;5.57;100.00
1736;BME280;865;53.672;10.250;2023-11-21T02:32:51;100451.59;;;5.47;100.00
1736;BME280;865;53.672;10.250;2023-11-21T02:35:21;100453.31;;;5.52;100.00
1736;BME280;865;53.672;10.250;2023-11-21T02:37:48;100462.78;;;5.54;100.00
1736;BME280;865;53.672;10.250;2023-11-21T02:40:15;100471.41;;;5.52;100.00
1736;BME280;865;53.672;10.250;2023-11-21T02:42:47;100480.06;;;5.40;100.00
1736;BME280;865;53.672;10.250;2023-11-21T02:45:14;100486.09;;;5.48;100.00
1736;BME280;865;53.672;10.250;2023-11-21T02:47:44;100489.56;;;5.42;100.00
1736;BME280;865;53.672;10.250;2023-11-21T02:50:11;100493.03;;;5.41;100.00
1736;BME280;865;53.672;10.250;2023-11-21T02:52:38;100495.59;;;5.41;100.00
1736;BME280;865;53.672;10.250;2023-11-21T02:55:05;100505.06;;;5.38;100.00
1736;BME280;865;53.672;10.250;2023-11-21T02:57:33;100499.91;;;5.39;100.00
1736;BME280;865;53.672;10.250;2023-11-21T03:00:00;100496.47;;;5.36;100.00
1736;BME280;865;53.672;10.250;2023-11-21T03:02:26;100511.97;;;5.40;100.00
1736;BME280;865;53.672;10.250;2023-11-21T03:04:53;100510.25;;;5.35;100.00
1736;BME280;865;53.672;10.250;2023-11-21T03:07:19;100520.63;;;5.33;100.00
1736;BME280;865;53.672;10.250;2023-11-21T03:09:47;100518.00;;;5.38;100.00
1736;BME280;865;53.672;10.250;2023-11-21T03:12:14;100521.47;;;5.37;100.00
1736;BME280;865;53.672;10.250;2023-11-21T03:14:40;100526.63;;;5.38;100.00
1736;BME280;865;53.672;10.250;2023-11-21T03:17:07;100539.59;;;5.31;100.00
1736;BME280;865;53.672;10.250;2023-11-21T03:19:34;100549.06;;;5.27;100.00
1736;BME280;865;53.672;10.250;2023-11-21T03:22:00;100560.25;;;5.23;100.00
1736;BME280;865;53.672;10.250;2023-11-21T03:24:27;100556.84;;;5.27;100.00
1736;BME280;865;53.672;10.250;2023-11-21T03:26:53;100563.72;;;5.28;100.00
1736;BME280;865;53.672;10.250;2023-11-21T03:29:20;100570.59;;;5.23;100.00
1736;BME280;865;53.672;10.250;2023-11-21T03:31:46;100574.91;;;5.25;100.00
1736;BME280;865;53.672;10.250;2023-11-21T03:34:27;100583.53;;;5.20;100.00
1736;BME280;865;53.672;10.250;2023-11-21T03:36:54;100587.88;;;5.18;100.00
1736;BME280;865;53.672;10.250;2023-11-21T03:39:21;100598.22;;;5.24;100.00
1736;BME280;865;53.672;10.250;2023-11-21T03:41:49;100605.97;;;5.21;100.00
1736;BME280;865;53.672;10.250;2023-11-21T03:44:15;100619.75;;;5.23;100.00
1736;BME280;865;53.672;10.250;2023-11-21T03:46:42;100629.25;;;5.24;100.00
1736;BME280;865;53.672;10.250;2023-11-21T03:49:08;100635.28;;;5.21;100.00
1736;BME280;865;53.672;10.250;2023-11-21T03:51:35;100640.44;;;5.21;100.00
1736;BME280;865;53.672;10.250;2023-11-21T03:54:02;100630.97;;;5.22;100.00
1736;BME280;865;53.672;10.250;2023-11-21T03:56:29;100652.50;;;5.24;100.00
1736;BME280;865;53.672;10.250;2023-11-21T03:58:56;100646.47;;;5.22;100.00
1736;BME280;865;53.672;10.250;2023-11-21T04:01:23;100649.06;;;5.23;100.00
1736;BME280;865;53.672;10.250;2023-11-21T04:03:50;100657.69;;;5.24;100.00
1736;BME280;865;53.672;10.250;2023-11-21T04:06:17;100667.16;;;5.31;100.00
1736;BME280;865;53.672;10.250;2023-11-21T04:08:45;100665.44;;;5.33;100.00
1736;BME280;865;53.672;10.250;2023-11-21T04:11:12;100679.25;;;5.28;100.00
1736;BME280;865;53.672;10.250;2023-11-21T04:13:39;100678.38;;;5.29;100.00
1736;BME280;865;53.672;10.250;2023-11-21T04:16:07;100680.09;;;5.34;100.00
1736;BME280;865;53.672;10.250;2023-11-21T04:18:37;100684.41;;;5.35;100.00
1736;BME280;865;53.672;10.250;2023-11-21T04:21:09;100699.91;;;5.35;100.00
1736;BME280;865;53.672;10.250;2023-11-21T04:23:36;100699.91;;;5.29;100.00
1736;BME280;865;53.672;10.250;2023-11-21T04:26:03;100703.38;;;5.25;100.00
1736;BME280;865;53.672;10.250;2023-11-21T04:28:29;100706.81;;;5.25;100.00
1736;BME280;865;53.672;10.250;2023-11-21T04:30:57;100705.94;;;5.25;100.00
1736;BME280;865;53.672;10.250;2023-11-21T04:33:23;100718.03;;;5.21;100.00
1736;BME280;865;53.672;10.250;2023-11-21T04:35:50;100719.75;;;5.33;100.00
1736;BME280;865;53.672;10.250;2023-11-21T04:38:17;100722.34;;;5.32;100.00
1736;BME280;865;53.672;10.250;2023-11-21T04:40:45;100732.69;;;5.27;100.00
1736;BME280;865;53.672;10.250;2023-11-21T04:43:12;100737.00;;;5.33;100.00
1736;BME280;865;53.672;10.250;2023-11-21T04:45:38;100740.44;;;5.27;100.00
1736;BME280;865;53.672;10.250;2023-11-21T04:48:04;100736.13;;;5.28;100.00
1736;BME280;865;53.672;10.250;2023-11-21T04:50:32;100734.41;;;5.31;100.00
1736;BME280;865;53.672;10.250;2023-11-21T04:52:59;100738.72;;;5.31;100.00
1736;BME280;865;53.672;10.250;2023-11-21T04:55:26;100737.00;;;5.33;100.00
1736;BME280;865;53.672;10.250;2023-11-21T04:57:54;100741.28;;;5.35;100.00
1736;BME280;865;53.672;10.250;2023-11-21T05:00:20;100739.56;;;5.31;100.00
1736;BME280;865;53.672;10.250;2023-11-21T05:02:47;100753.38;;;5.32;100.00
1736;BME280;865;53.672;10.250;2023-11-21T05:05:14;100758.53;;;5.32;100.00
1736;BME280;865;53.672;10.250;2023-11-21T05:07:41;100770.63;;;5.37;100.00
1736;BME280;865;53.672;10.250;2023-11-21T05:10:08;100787.84;;;5.32;100.00
1736;BME280;865;53.672;10.250;2023-11-21T05:12:38;100792.19;;;5.36;100.00
1736;BME280;865;53.672;10.250;2023-11-21T05:15:05;100793.88;;;5.31;100.00
1736;BME280;865;53.672;10.250;2023-11-21T05:17:38;100805.09;;;5.30;100.00
1736;BME280;865;53.672;10.250;2023-11-21T05:20:09;100811.13;;;5.29;100.00
1736;BME280;865;53.672;10.250;2023-11-21T05:22:37;100799.91;;;5.32;100.00
1736;BME280;865;53.672;10.250;2023-11-21T05:25:05;100800.78;;;5.38;100.00
1736;BME280;865;53.672;10.250;2023-11-21T05:27:34;100805.09;;;5.30;100.00
1736;BME280;865;53.672;10.250;2023-11-21T05:30:03;100818.88;;;5.32;100.00
1736;BME280;865;53.672;10.250;2023-11-21T05:33:00;100826.66;;;5.37;100.00
1736;BME280;865;53.672;10.250;2023-11-21T05:35:27;100833.53;;;5.29;100.00
1736;BME280;865;53.672;10.250;2023-11-21T05:37:53;100831.81;;;5.32;100.00
1736;BME280;865;53.672;10.250;2023-11-21T05:40:20;100830.13;;;5.36;100.00
1736;BME280;865;53.672;10.250;2023-11-21T05:42:48;100830.09;;;5.25;100.00
1736;BME280;865;53.672;10.250;2023-11-21T05:45:15;100832.66;;;5.22;100.00
1736;BME280;865;53.672;10.250;2023-11-21T05:47:45;100837.81;;;5.22;100.00
1736;BME280;865;53.672;10.250;2023-11-21T05:50:15;100832.66;;;5.25;100.00
1736;BME280;865;53.672;10.250;2023-11-21T05:52:45;100843.91;;;5.30;100.00
1736;BME280;865;53.672;10.250;2023-11-21T05:55:12;100860.28;;;5.31;100.00
1736;BME280;865;53.672;10.250;2023-11-21T05:57:40;100868.91;;;5.30;100.00
1736;BME280;865;53.672;10.250;2023-11-21T06:00:09;100871.47;;;5.27;100.00
1736;BME280;865;53.672;10.250;2023-11-21T06:02:49;100887.03;;;5.33;100.00
1736;BME280;865;53.672;10.250;2023-11-21T06:05:24;100902.50;;;5.28;100.00
1736;BME280;865;53.672;10.250;2023-11-21T06:07:53;100914.63;;;5.37;100.00
1736;BME280;865;53.672;10.250;2023-11-21T06:10:21;100921.50;;;5.33;100.00
1736;BME280;865;53.672;10.250;2023-11-21T06:12:49;100924.09;;;5.38;100.00
1736;BME280;865;53.672;10.250;2023-11-21T06:15:16;100920.66;;;5.37;100.00
1736;BME280;865;53.672;10.250;2023-11-21T06:17:46;100931.88;;;5.41;100.00
1736;BME280;865;53.672;10.250;2023-11-21T06:20:15;100927.59;;;5.41;100.00
1736;BME280;865;53.672;10.250;2023-11-21T06:22:46;100940.53;;;5.41;100.00
1736;BME280;865;53.672;10.250;2023-11-21T06:25:13;100936.16;;;5.37;100.00
1736;BME280;865;53.672;10.250;2023-11-21T06:27:42;100937.03;;;5.41;100.00
1736;BME280;865;53.672;10.250;2023-11-21T06:30:10;100936.16;;;5.37;100.00
1736;BME280;865;53.672;10.250;2023-11-21T06:32:38;100945.69;;;5.41;100.00
1736;BME280;865;53.672;10.250;2023-11-21T06:35:07;100946.56;;;5.46;100.00
1736;BME280;865;53.672;10.250;2023-11-21T06:37:34;100958.63;;;5.41;100.00
1736;BME280;865;53.672;10.250;2023-11-21T06:40:00;100962.06;;;5.46;100.00
1736;BME280;865;53.672;10.250;2023-11-21T06:42:27;100958.56;;;5.35;100.00
1736;BME280;865;53.672;10.250;2023-11-21T06:44:53;100967.25;;;5.45;100.00
1736;BME280;865;53.672;10.250;2023-11-21T06:47:23;100987.97;;;5.49;100.00
1736;BME280;865;53.672;10.250;2023-11-21T06:49:54;100985.41;;;5.54;100.00
1736;BME280;865;53.672;10.250;2023-11-21T06:52:21;100999.13;;;5.44;100.00
1736;BME280;865;53.672;10.250;2023-11-21T06:54:48;101005.13;;;5.38;100.00
1736;BME280;865;53.672;10.250;2023-11-21T06:57:17;101018.13;;;5.43;100.00
1736;BME280;865;53.672;10.250;2023-11-21T06:59:44;101023.34;;;5.47;100.00
1736;BME280;865;53.672;10.250;2023-11-21T07:02:12;101018.16;;;5.44;100.00
1736;BME280;865;53.672;10.250;2023-11-21T07:04:40;101031.06;;;5.46;100.00
1736;BME280;865;53.672;10.250;2023-11-21T07:07:07;101040.56;;;5.50;100.00
1736;BME280;865;53.672;10.250;2023-11-21T07:09:33;101051.75;;;5.43;100.00
1736;BME280;865;53.672;10.250;2023-11-21T07:12:00;101059.50;;;5.43;100.00
1736;BME280;865;53.672;10.250;2023-11-21T07:14:28;101063.88;;;5.48;100.00
1736;BME280;865;53.672;10.250;2023-11-21T07:16:54;101069.91;;;5.47;100.00
1736;BME280;865;53.672;10.250;2023-11-21T07:19:21;101076.72;;;5.41;100.00
1736;BME280;865;53.672;10.250;2023-11-21T07:21:48;101085.25;;;5.26;100.00
1736;BME280;865;53.672;10.250;2023-11-21T07:24:17;101088.75;;;5.34;100.00
1736;BME280;865;53.672;10.250;2023-11-21T07:26:44;101091.41;;;5.43;100.00
1736;BME280;865;53.672;10.250;2023-11-21T07:29:11;101104.44;;;5.54;100.00
1736;BME280;865;53.672;10.250;2023-11-21T07:31:38;101114.78;;;5.54;100.00
1736;BME280;865;53.672;10.250;2023-11-21T07:34:04;101130.28;;;5.51;100.00
1736;BME280;865;53.672;10.250;2023-11-21T07:36:31;101132.84;;;5.45;100.00
1736;BME280;865;53.672;10.250;2023-11-21T07:38:58;101129.41;;;5.49;100.00
1736;BME280;865;53.672;10.250;2023-11-21T07:41:25;101132.03;;;5.51;100.00
1736;BME280;865;53.672;10.250;2023-11-21T07:43:57;101141.47;;;5.45;100.00
1736;BME280;865;53.672;10.250;2023-11-21T07:46:26;101150.16;;;5.54;100.00
1736;BME280;865;53.672;10.250;2023-11-21T07:48:53;101150.94;;;5.46;100.00
1736;BME280;865;53.672;10.250;2023-11-21T07:51:20;101155.31;;;5.54;100.00
1736;BME280;865;53.672;10.250;2023-11-21T07:53:46;101156.97;;;5.45;100.00
1736;BME280;865;53.672;10.250;2023-11-21T07:56:12;101157.88;;;5.47;100.00
1736;BME280;865;53.672;10.250;2023-11-21T07:58:39;101157.09;;;5.59;100.00
1736;BME280;865;53.672;10.250;2023-11-21T08:01:06;101154.53;;;5.62;100.00
1736;BME280;865;53.672;10.250;2023-11-21T08:03:32;101155.44;;;5.70;100.00
1736;BME280;865;53.672;10.250;2023-11-21T08:06:00;101163.16;;;5.63;100.00
1736;BME280;865;53.672;10.250;2023-11-21T08:08:27;101161.41;;;5.65;100.00
1736;BME280;865;53.672;10.250;2023-11-21T08:10:54;101166.72;;;5.79;100.00
1736;BME280;865;53.672;10.250;2023-11-21T08:13:24;101169.31;;;5.80;100.00
1736;BME280;865;53.672;10.250;2023-11-21T08:15:56;101179.63;;;5.74;100.00
1736;BME280;865;53.672;10.250;2023-11-21T08:18:23;101183.94;;;5.72;100.00
1736;BME280;865;53.672;10.250;2023-11-21T08:20:49;101186.44;;;5.64;100.00
1736;BME280;865;53.672;10.250;2023-11-21T08:23:16;101193.31;;;5.61;100.00
1736;BME280;865;53.672;10.250;2023-11-21T08:25:45;101202.75;;;5.56;100.00
1736;BME280;865;53.672;10.250;2023-11-21T08:28:13;101199.06;;;5.29;100.00
1736;BME280;865;53.672;10.250;2023-11-21T08:30:43;101200.78;;;5.24;100.00
1736;BME280;865;53.672;10.250;2023-11-21T08:33:10;101196.47;;;5.26;100.00
1736;BME280;865;53.672;10.250;2023-11-21T08:35:38;101197.44;;;5.37;100.00
1736;BME280;865;53.672;10.250;2023-11-21T08:38:05;101187.22;;;5.51;100.00
1736;BME280;865;53.672;10.250;2023-11-21T08:40:31;101195.69;;;5.33;100.00
1736;BME280;865;53.672;10.250;2023-11-21T08:42:58;101183.59;;;5.32;100.00
1736;BME280;865;53.672;10.250;2023-11-21T08:45:27;101185.47;;;5.48;100.00
1736;BME280;865;53.672;10.250;2023-11-21T08:47:54;101180.38;;;5.56;100.00
1736;BME280;865;53.672;10.250;2023-11-21T08:50:21;101185.44;;;5.47;100.00
1736;BME280;865;53.672;10.250;2023-11-21T08:52:48;101189.69;;;5.40;100.00
1736;BME280;865;53.672;10.250;2023-11-21T08:55:16;101194.75;;;5.28;100.00
1736;BME280;865;53.672;10.250;2023-11-21T08:57:44;101193.06;;;5.30;100.00
1736;BME280;865;53.672;10.250;2023-11-21T09:00:11;101180.19;;;5.36;100.00
1736;BME280;865;53.672;10.250;2023-11-21T09:02:39;101187.72;;;5.12;100.00
1736;BME280;865;53.672;10.250;2023-11-21T09:05:12;101181.66;;;5.10;100.00
1736;BME280;865;53.672;10.250;2023-11-21T09:07:41;101172.97;;;5.01;100.00
1736;BME280;865;53.672;10.250;2023-11-21T09:10:08;101166.28;;;5.25;100.00
1736;BME280;865;53.672;10.250;2023-11-21T09:12:36;101166.34;;;5.30;100.00
1736;BME280;865;53.672;10.250;2023-11-21T09:15:07;101160.31;;;5.32;100.00
1736;BME280;865;53.672;10.250;2023-11-21T09:17:34;101165.41;;;5.26;100.00
1736;BME280;865;53.672;10.250;2023-11-21T09:20:02;101164.66;;;5.38;100.00
1736;BME280;865;53.672;10.250;2023-11-21T09:22:33;101179.41;;;5.46;100.00
1736;BME280;865;53.672;10.250;2023-11-21T09:24:59;101181.13;;;5.44;100.00
1736;BME280;865;53.672;10.250;2023-11-21T09:27:26;101178.59;;;5.55;100.00
1736;BME280;865;53.672;10.250;2023-11-21T09:29:53;101188.84;;;5.40;100.00
1736;BME280;865;53.672;10.250;2023-11-21T09:32:20;101199.97;;;5.31;100.00
1736;BME280;865;53.672;10.250;2023-11-21T09:34:49;101213.72;;;5.27;100.00
1736;BME280;865;53.672;10.250;2023-11-21T09:37:18;101223.06;;;5.13;100.00
1736;BME280;865;53.672;10.250;2023-11-21T09:39:45;101229.13;;;5.15;100.00
1736;BME280;865;53.672;10.250;2023-11-21T09:42:23;101224.06;;;5.24;100.00
1736;BME280;865;53.672;10.250;2023-11-21T09:47:25;101250.84;;;5.32;100.00
1736;BME280;865;53.672;10.250;2023-11-21T09:49:54;101259.41;;;5.23;100.00
1736;BME280;865;53.672;10.250;2023-11-21T09:52:25;101273.19;;;5.24;100.00
1736;BME280;865;53.672;10.250;2023-11-21T09:54:53;101281.88;;;5.31;100.00
1736;BME280;865;53.672;10.250;2023-11-21T09:57:23;101284.53;;;5.37;100.00
1736;BME280;865;53.672;10.250;2023-11-21T09:59:54;101292.22;;;5.31;100.00
1736;BME280;865;53.672;10.250;2023-11-21T10:02:25;101297.41;;;5.32;100.00
1736;BME280;865;53.672;10.250;2023-11-21T10:04:53;101305.97;;;5.27;100.00
1736;BME280;865;53.672;10.250;2023-11-21T10:07:21;101311.97;;;5.24;100.00
1736;BME280;865;53.672;10.250;2023-11-21T10:09:48;101317.16;;;5.24;100.00
1736;BME280;865;53.672;10.250;2023-11-21T10:12:16;101323.09;;;5.15;100.00
1736;BME280;865;53.672;10.250;2023-11-21T10:14:48;101321.44;;;5.22;100.00
1736;BME280;865;53.672;10.250;2023-11-21T10:17:17;101312.91;;;5.31;100.00
1736;BME280;865;53.672;10.250;2023-11-21T10:19:48;101318.13;;;5.35;100.00
1736;BME280;865;53.672;10.250;2023-11-21T10:22:15;101331.09;;;5.38;100.00
1736;BME280;865;53.672;10.250;2023-11-21T10:24:42;101314.63;;;5.30;100.00
1736;BME280;865;53.672;10.250;2023-11-21T10:27:19;101319.91;;;5.41;100.00
1736;BME280;865;53.672;10.250;2023-11-21T10:29:45;101332.09;;;5.53;100.00
1736;BME280;865;53.672;10.250;2023-11-21T10:32:12;101335.66;;;5.61;100.00
1736;BME280;865;53.672;10.250;2023-11-21T10:34:38;101344.28;;;5.60;100.00
1736;BME280;865;53.672;10.250;2023-11-21T10:37:13;101348.50;;;5.52;100.00
1736;BME280;865;53.672;10.250;2023-11-21T10:39:43;101356.03;;;5.32;100.00
1736;BME280;865;53.672;10.250;2023-11-21T10:42:10;101361.09;;;5.21;100.00
1736;BME280;865;53.672;10.250;2023-11-21T10:44:36;101362.13;;;5.37;100.00
1736;BME280;865;53.672;10.250;2023-11-21T10:47:04;101376.00;;;5.43;100.00
1736;BME280;865;53.672;10.250;2023-11-21T10:49:31;101381.00;;;5.28;100.00
1736;BME280;865;53.672;10.250;2023-11-21T10:51:58;101381.06;;;5.34;100.00
1736;BME280;865;53.672;10.250;2023-11-21T10:54:25;101378.72;;;5.54;100.00
1736;BME280;865;53.672;10.250;2023-11-21T10:57:00;101379.78;;;5.71;100.00
1736;BME280;865;53.672;10.250;2023-11-21T10:59:30;101390.91;;;5.63;100.00
1736;BME280;865;53.672;10.250;2023-11-21T11:02:01;101391.50;;;5.40;100.00
1736;BME280;865;53.672;10.250;2023-11-21T11:04:30;101403.50;;;5.35;100.00
1736;BME280;865;53.672;10.250;2023-11-21T11:06:58;101399.84;;;5.18;100.00
1736;BME280;865;53.672;10.250;2023-11-21T11:09:28;101411.91;;;5.20;100.00
1736;BME280;865;53.672;10.250;2023-11-21T11:11:56;101412.00;;;5.25;100.00
1736;BME280;865;53.672;10.250;2023-11-21T11:14:24;101422.25;;;5.20;100.00
1736;BME280;865;53.672;10.250;2023-11-21T11:16:54;101424.94;;;5.25;100.00
1736;BME280;865;53.672;10.250;2023-11-21T11:19:21;101426.31;;;5.00;100.00
1736;BME280;865;53.672;10.250;2023-11-21T11:30:37;101419.50;;;5.07;100.00
1736;BME280;865;53.672;10.250;2023-11-21T11:33:29;101417.09;;;5.19;100.00
1736;BME280;865;53.672;10.250;2023-11-21T11:38:45;101426.38;;;5.05;100.00
1736;BME280;865;53.672;10.250;2023-11-21T11:41:12;101432.53;;;5.13;100.00
1736;BME280;865;53.672;10.250;2023-11-21T11:43:39;101425.75;;;5.21;100.00
1736;BME280;865;53.672;10.250;2023-11-21T11:46:11;101427.63;;;5.34;100.00
1736;BME280;865;53.672;10.250;2023-11-21T11:48:41;101430.31;;;5.42;100.00
1736;BME280;865;53.672;10.250;2023-11-21T11:51:12;101432.94;;;5.46;100.00
1736;BME280;865;53.672;10.250;2023-11-21T11:53:41;101447.34;;;5.24;100.00
1736;BME280;865;53.672;10.250;2023-11-21T11:56:28;101443.16;;;5.34;100.00
1736;BME280;865;53.672;10.250;2023-11-21T11:58:59;101442.25;;;5.32;100.00
1736;BME280;865;53.672;10.250;2023-11-21T12:01:26;101438.00;;;5.36;100.00
1736;BME280;865;53.672;10.250;2023-11-21T12:06:43;101448.31;;;5.34;100.00
1736;BME280;865;53.672;10.250;2023-11-21T12:09:29;101451.03;;;5.43;100.00
1736;BME280;865;53.672;10.250;2023-11-21T12:11:58;101457.69;;;5.24;100.00
1736;BME280;865;53.672;10.250;2023-11-21T12:14:25;101461.03;;;5.17;100.00
1736;BME280;865;53.672;10.250;2023-11-21T12:16:51;101469.63;;;5.16;100.00
1736;BME280;865;53.672;10.250;2023-11-21T12:19:19;101468.03;;;5.26;100.00
1736;BME280;865;53.672;10.250;2023-11-21T12:21:47;101474.81;;;5.16;100.00
1736;BME280;865;53.672;10.250;2023-11-21T12:24:14;101467.00;;;5.12;100.00
1736;BME280;865;53.672;10.250;2023-11-21T12:26:42;101466.31;;;5.23;100.00
1736;BME280;865;53.672;10.250;2023-11-21T12:29:10;101473.16;;;5.21;100.00
1736;BME280;865;53.672;10.250;2023-11-21T12:31:37;101470.38;;;5.08;100.00
1736;BME280;865;53.672;10.250;2023-11-21T12:34:04;101478.25;;;5.15;100.00
1736;BME280;865;53.672;10.250;2023-11-21T12:36:32;101479.75;;;5.01;100.00
1736;BME280;865;53.672;10.250;2023-11-21T12:39:02;101478.25;;;5.15;100.00
1736;BME280;865;53.672;10.250;2023-11-21T12:41:29;101480.94;;;5.21;100.00
1736;BME280;865;53.672;10.250;2023-11-21T12:43:56;101490.72;;;4.86;100.00
1736;BME280;865;53.672;10.250;2023-11-21T12:46:23;101482.94;;;4.85;100.00
1736;BME280;865;53.672;10.250;2023-11-21T12:48:53;101474.19;;;4.75;100.00
1736;BME280;865;53.672;10.250;2023-11-21T12:51:21;101469.16;;;4.83;100.00
1736;BME280;865;53.672;10.250;2023-11-21T12:53:48;101461.34;;;4.79;100.00
1736;BME280;865;53.672;10.250;2023-11-21T12:56:15;101463.16;;;4.85;100.00
1736;BME280;865;53.672;10.250;2023-11-21T12:58:45;101471.44;;;4.64;100.00
1736;BME280;865;53.672;10.250;2023-11-21T13:01:17;101474.03;;;4.66;100.00
1736;BME280;865;53.672;10.250;2023-11-21T13:03:48;101479.19;;;4.66;100.00
1736;BME280;865;53.672;10.250;2023-11-21T13:06:18;101481.81;;;4.67;100.00
1736;BME280;865;53.672;10.250;2023-11-21T13:08:46;101479.28;;;4.70;100.00
1736;BME280;865;53.672;10.250;2023-11-21T13:11:13;101475.94;;;4.77;100.00
1736;BME280;865;53.672;10.250;2023-11-21T13:13:41;101472.72;;;4.91;100.00
1736;BME280;865;53.672;10.250;2023-11-21T13:16:11;101481.50;;;5.02;100.00
1736;BME280;865;53.672;10.250;2023-11-21T13:18:39;101505.44;;;4.90;100.00
1736;BME280;865;53.672;10.250;2023-11-21T13:21:09;101516.72;;;4.95;100.00
1736;BME280;865;53.672;10.250;2023-11-21T13:23:43;101529.66;;;4.95;100.00
1736;BME280;865;53.672;10.250;2023-11-21T13:26:12;101536.63;;;5.01;100.00
1736;BME280;865;53.672;10.250;2023-11-21T13:28:41;101544.34;;;4.99;100.00
1736;BME280;865;53.672;10.250;2023-11-21T13:31:13;101549.53;;;4.98;100.00